Allendale, SC

2:20 AM EST on November 29, 2014 (GMT -0500)
Joe Miley Road | Change Station
CLOSE
Current Station
Personal Weather Station
Location: Brunson, SC
Elevation: 130 ft
Nearby Weather Stations

Elev 130 ft 32.94 °N, 81.13 °W | Updated 3 minutes ago

Clear
Clear
25.3 °F
Feels Like 25 °F
N
0.0
Wind Variable Wind from NW

Today
High -- | Low -- °F
--% Chance of Precip.
Yesterday
High -- | Low -- °F
Precip. -- in
7:08 AM 5:18 PM
Waxing Crescent, 49% visible
Pressure 30.32 in
Visibility 7.0 miles
Clouds Clear
Windchill 25 °F
Dew Point 23 °F
Humidity 90%
Rainfall 0.00 in
Snow Depth Not available.
UV 0 out of 12
Pollen .30 out of 12
Air Quality Not available.
Flu Activity Not available.
METAR KJYL 290715Z AUTO 00000KT 7SM CLR 01/01 A3032 RMK AO2 T00110009

More Conditions Fewer Conditions

Pressure 30.32 in
Visibility 7.0 miles
Clouds Clear
Windchill 25 °F
Dew Point 23 °F
Humidity 90%
Rainfall 0.00 in
Snow Depth Not available.
UV 0 out of 12
Pollen .30 out of 12
Air Quality Not available.
Flu Activity Not available.
METAR KJYL 290715Z AUTO 00000KT 7SM CLR 01/01 A3032 RMK AO2 T00110009

More Conditions Fewer Conditions

10-Day Weather Forecast

Almanac

Astronomy

Nov. 29, 2014 Rise Set
Actual Time
Civil Twilight
Nautical Twilight
Astronomical Twilight
Moon
Length of Visible Light
Length of Day
Tomorrow will be .
, % of the Moon is Illuminated

Today's Extremes

State Highs State Lows

Community

WunderPhotos

Upload Photos

1,774,432 photos uploaded!

WunderBlogs® & News

Nearby

Air Quality

  Air Quality AQ Index Pollutant
Not available.

Snow Depth

Station Depth Elevation

Earthquake Activity

City Distance Mag. Time & Date
Minimum magnitude displayed is 2.5.

Coastal Water Temperatures

Place Temperature

Nearby Weather Stations